Time,TemperatureF,DewpointF,PressureIn,WindDirection,WindDirectionDegrees,WindSpeedMPH,WindSpeedGustMPH,Humidity,HourlyPrecipIn,Conditions,Clouds,dailyrainin,SoftwareType,DateUTC
2014-01-14 00:11:00,44.3,42.0,29.64,WSW,248,2.0,10.0,92,0.04,,,0.01,weatherlink.com 1.10,2014-01-14 05:11:00,
2014-01-14 00:26:00,44.1,42.0,29.64,SSW,204,5.0,9.0,93,0.05,,,0.03,weatherlink.com 1.10,2014-01-14 05:26:00,
2014-01-14 00:41:00,44.1,43.0,29.64,West,277,5.0,7.0,94,0.06,,,0.05,weatherlink.com 1.10,2014-01-14 05:41:00,
2014-01-14 00:56:00,43.7,42.0,29.64,SSE,155,7.0,10.0,93,0.05,,,0.05,weatherlink.com 1.10,2014-01-14 05:56:00,
2014-01-14 01:11:00,42.9,41.0,29.64,West,274,1.0,7.0,94,0.04,,,0.06,weatherlink.com 1.10,2014-01-14 06:11:00,
2014-01-14 01:26:00,42.6,41.0,29.64,WNW,284,2.0,11.0,95,0.03,,,0.06,weatherlink.com 1.10,2014-01-14 06:26:00,
2014-01-14 01:42:00,42.3,41.0,29.64,SW,229,5.0,11.0,95,0.01,,,0.06,weatherlink.com 1.10,2014-01-14 06:42:00,
2014-01-14 01:57:00,41.7,40.0,29.64,WSW,247,5.0,8.0,95,0.01,,,0.06,weatherlink.com 1.10,2014-01-14 06:57:00,
2014-01-14 02:12:00,41.4,40.0,29.65,SW,233,1.0,9.0,95,0.00,,,0.06,weatherlink.com 1.10,2014-01-14 07:12:00,
2014-01-14 02:27:00,41.0,40.0,29.66,WSW,256,3.0,11.0,95,0.00,,,0.06,weatherlink.com 1.10,2014-01-14 07:27:00,
2014-01-14 02:42:00,41.1,40.0,29.66,West,268,2.0,7.0,95,0.00,,,0.06,weatherlink.com 1.10,2014-01-14 07:42:00,
2014-01-14 02:57:00,40.7,39.0,29.67,West,272,4.0,8.0,95,0.00,,,0.06,weatherlink.com 1.10,2014-01-14 07:57:00,
2014-01-14 03:12:00,40.3,39.0,29.67,SW,236,1.0,6.0,95,0.00,,,0.06,weatherlink.com 1.10,2014-01-14 08:12:00,
2014-01-14 03:27:00,40.1,39.0,29.66,WSW,240,2.0,5.0,95,0.00,,,0.06,weatherlink.com 1.10,2014-01-14 08:27:00,
2014-01-14 03:42:00,39.5,39.0,29.66,WSW,252,1.0,5.0,96,0.00,,,0.06,weatherlink.com 1.10,2014-01-14 08:42:00,
2014-01-14 03:57:00,39.0,38.0,29.66,SW,228,0.0,4.0,95,0.00,,,0.06,weatherlink.com 1.10,2014-01-14 08:57:00,
2014-01-14 04:12:00,38.0,37.0,29.66,West,264,0.0,6.0,95,0.00,,,0.06,weatherlink.com 1.10,2014-01-14 09:12:00,
2014-01-14 04:27:00,37.3,36.0,29.68,WSW,239,1.0,4.0,96,0.00,,,0.06,weatherlink.com 1.10,2014-01-14 09:27:00,
2014-01-14 04:42:00,36.9,36.0,29.67,SSW,210,0.0,4.0,96,0.00,,,0.06,weatherlink.com 1.10,2014-01-14 09:42:00,
2014-01-14 04:57:00,36.7,36.0,29.67,SW,222,1.0,5.0,96,0.00,,,0.06,weatherlink.com 1.10,2014-01-14 09:57:00,
2014-01-14 05:12:00,36.3,35.0,29.67,SSW,210,3.0,5.0,96,0.00,,,0.06,weatherlink.com 1.10,2014-01-14 10:12:00,
2014-01-14 05:27:00,36.0,35.0,29.68,West,261,0.0,4.0,97,0.00,,,0.06,weatherlink.com 1.10,2014-01-14 10:27:00,
2014-01-14 05:42:00,35.6,35.0,29.68,WSW,248,2.0,4.0,97,0.00,,,0.06,weatherlink.com 1.10,2014-01-14 10:42:00,
2014-01-14 05:57:00,35.3,35.0,29.68,West,274,1.0,4.0,97,0.00,,,0.06,weatherlink.com 1.10,2014-01-14 10:57:00,
2014-01-14 06:12:00,35.1,34.0,29.70,SSE,153,1.0,6.0,97,0.00,,,0.06,weatherlink.com 1.10,2014-01-14 11:12:00,
2014-01-14 06:27:00,34.9,34.0,29.71,SSW,207,0.0,6.0,97,0.00,,,0.06,weatherlink.com 1.10,2014-01-14 11:27:00,
2014-01-14 06:42:00,34.9,34.0,29.72,West,260,0.0,4.0,97,0.00,,,0.06,weatherlink.com 1.10,2014-01-14 11:42:00,
2014-01-14 06:57:00,34.7,34.0,29.71,SW,219,0.0,3.0,97,0.00,,,0.06,weatherlink.com 1.10,2014-01-14 11:57:00,
2014-01-14 07:12:00,34.6,34.0,29.72,West,261,0.0,4.0,97,0.00,,,0.06,weatherlink.com 1.10,2014-01-14 12:12:00,
2014-01-14 07:27:00,34.7,34.0,29.72,SW,219,1.0,3.0,97,0.00,,,0.06,weatherlink.com 1.10,2014-01-14 12:27:00,
2014-01-14 07:42:00,34.6,34.0,29.71,West,269,1.0,3.0,97,0.00,,,0.06,weatherlink.com 1.10,2014-01-14 12:42:00,
2014-01-14 07:58:00,34.6,34.0,29.73,West,265,0.0,4.0,97,0.00,,,0.06,weatherlink.com 1.10,2014-01-14 12:58:00,
2014-01-14 08:13:00,34.5,34.0,29.73,SW,226,2.0,4.0,97,0.00,,,0.06,weatherlink.com 1.10,2014-01-14 13:13:00,
2014-01-14 08:28:00,34.6,34.0,29.75,West,276,1.0,4.0,97,0.00,,,0.06,weatherlink.com 1.10,2014-01-14 13:28:00,
2014-01-14 08:43:00,34.8,34.0,29.76,WSW,243,0.0,5.0,97,0.00,,,0.06,weatherlink.com 1.10,2014-01-14 13:43:00,
2014-01-14 08:58:00,35.0,34.0,29.76,SW,223,2.0,5.0,97,0.00,,,0.06,weatherlink.com 1.10,2014-01-14 13:58:00,
2014-01-14 09:13:00,35.3,34.0,29.77,WNW,285,1.0,7.0,95,0.00,,,0.06,weatherlink.com 1.10,2014-01-14 14:13:00,
2014-01-14 09:28:00,35.5,34.0,29.78,West,281,1.0,6.0,95,0.00,,,0.06,weatherlink.com 1.10,2014-01-14 14:28:00,
2014-01-14 09:43:00,35.8,34.0,29.78,WSW,240,1.0,7.0,94,0.00,,,0.06,weatherlink.com 1.10,2014-01-14 14:43:00,
2014-01-14 09:58:00,36.0,34.0,29.79,SSE,155,1.0,5.0,93,0.00,,,0.06,weatherlink.com 1.10,2014-01-14 14:58:00,
2014-01-14 10:13:00,35.9,34.0,29.79,SSW,204,2.0,6.0,92,0.00,,,0.06,weatherlink.com 1.10,2014-01-14 15:13:00,
2014-01-14 10:28:00,35.7,34.0,29.78,SW,230,1.0,5.0,93,0.00,,,0.06,weatherlink.com 1.10,2014-01-14 15:28:00,
2014-01-14 10:43:00,35.7,34.0,29.78,ESE,120,0.0,6.0,93,0.00,,,0.06,weatherlink.com 1.10,2014-01-14 15:43:00,
2014-01-14 10:58:00,35.7,34.0,29.78,SE,145,1.0,7.0,92,0.00,,,0.06,weatherlink.com 1.10,2014-01-14 15:58:00,
2014-01-14 11:13:00,35.6,34.0,29.79,SW,219,3.0,7.0,92,0.00,,,0.06,weatherlink.com 1.10,2014-01-14 16:13:00,
2014-01-14 11:28:00,35.9,34.0,29.78,WSW,240,2.0,5.0,91,0.00,,,0.06,weatherlink.com 1.10,2014-01-14 16:28:00,
2014-01-14 11:43:00,36.1,34.0,29.77,WSW,253,2.0,6.0,90,0.00,,,0.06,weatherlink.com 1.10,2014-01-14 16:43:00,
2014-01-14 11:58:00,36.3,33.0,29.77,West,278,2.0,5.0,89,0.00,,,0.06,weatherlink.com 1.10,2014-01-14 16:58:00,
2014-01-14 12:13:00,36.4,33.0,29.77,West,272,6.0,6.0,87,0.00,,,0.06,weatherlink.com 1.10,2014-01-14 17:13:00,
2014-01-14 12:28:00,36.8,34.0,29.76,West,271,2.0,5.0,88,0.00,,,0.06,weatherlink.com 1.10,2014-01-14 17:28:00,
2014-01-14 12:44:00,36.5,33.0,29.76,SW,219,4.0,6.0,87,0.00,,,0.06,weatherlink.com 1.10,2014-01-14 17:44:00,
2014-01-14 12:58:00,36.7,33.0,29.77,South,182,1.0,7.0,87,0.00,,,0.06,weatherlink.com 1.10,2014-01-14 17:58:00,
2014-01-14 13:13:00,36.8,33.0,29.76,SSW,205,4.0,7.0,86,0.00,,,0.06,weatherlink.com 1.10,2014-01-14 18:13:00,
2014-01-14 13:28:00,37.4,32.0,29.77,SW,235,5.0,7.0,82,0.00,,,0.06,weatherlink.com 1.10,2014-01-14 18:28:00,
2014-01-14 13:43:00,37.9,31.0,29.77,WSW,251,2.0,9.0,75,0.00,,,0.06,weatherlink.com 1.10,2014-01-14 18:43:00,
2014-01-14 13:58:00,39.0,30.0,29.76,WSW,253,3.0,11.0,70,0.00,,,0.06,weatherlink.com 1.10,2014-01-14 18:58:00,
2014-01-14 14:13:00,38.8,29.0,29.77,WSW,257,3.0,12.0,68,0.00,,,0.06,weatherlink.com 1.10,2014-01-14 19:13:00,
2014-01-14 14:28:00,37.9,29.0,29.77,WSW,242,3.0,11.0,69,0.00,,,0.06,weatherlink.com 1.10,2014-01-14 19:28:00,
2014-01-14 14:43:00,37.2,28.0,29.78,West,278,3.0,7.0,69,0.00,,,0.06,weatherlink.com 1.10,2014-01-14 19:43:00,
2014-01-14 14:58:00,36.8,28.0,29.79,West,261,1.0,8.0,71,0.00,,,0.06,weatherlink.com 1.10,2014-01-14 19:58:00,
2014-01-14 15:13:00,36.4,29.0,29.79,SW,214,8.0,8.0,73,0.00,,,0.06,weatherlink.com 1.10,2014-01-14 20:13:00,
2014-01-14 15:28:00,36.0,29.0,29.79,East,101,3.0,7.0,75,0.00,,,0.06,weatherlink.com 1.10,2014-01-14 20:28:00,
2014-01-14 15:43:00,35.7,28.0,29.79,SW,221,4.0,10.0,73,0.00,,,0.06,weatherlink.com 1.10,2014-01-14 20:43:00,
2014-01-14 15:58:00,35.4,28.0,29.79,WSW,255,3.0,4.0,74,0.00,,,0.06,weatherlink.com 1.10,2014-01-14 20:58:00,
2014-01-14 16:13:00,35.0,27.0,29.79,SSW,197,3.0,7.0,72,0.00,,,0.06,weatherlink.com 1.10,2014-01-14 21:13:00,
2014-01-14 16:28:00,34.7,27.0,29.79,WSW,242,3.0,9.0,74,0.00,,,0.06,weatherlink.com 1.10,2014-01-14 21:28:00,
2014-01-14 16:43:00,34.2,28.0,29.80,SW,219,1.0,3.0,78,0.00,,,0.06,weatherlink.com 1.10,2014-01-14 21:43:00,
2014-01-14 16:58:00,33.6,27.0,29.80,WSW,256,6.0,7.0,78,0.00,,,0.06,weatherlink.com 1.10,2014-01-14 21:58:00,
2014-01-14 17:13:00,32.9,27.0,29.81,WNW,288,0.0,4.0,80,0.00,,,0.06,weatherlink.com 1.10,2014-01-14 22:13:00,
2014-01-14 17:28:00,32.3,27.0,29.81,WSW,238,5.0,5.0,80,0.00,,,0.06,weatherlink.com 1.10,2014-01-14 22:28:00,
2014-01-14 17:43:00,31.4,27.0,29.81,SSW,197,0.0,1.0,82,0.00,,,0.06,weatherlink.com 1.10,2014-01-14 22:43:00,
2014-01-14 17:59:00,31.0,26.0,29.82,SE,126,0.0,3.0,82,0.00,,,0.06,weatherlink.com 1.10,2014-01-14 22:59:00,
2014-01-14 18:14:00,30.8,26.0,29.82,SSE,164,0.0,2.0,82,0.00,,,0.06,weatherlink.com 1.10,2014-01-14 23:14:00,
2014-01-14 18:29:00,29.7,26.0,29.82,SSE,164,0.0,0.0,85,0.00,,,0.06,weatherlink.com 1.10,2014-01-14 23:29:00,
2014-01-14 18:44:00,28.5,25.0,29.82,SSE,164,0.0,0.0,86,0.00,,,0.06,weatherlink.com 1.10,2014-01-14 23:44:00,
2014-01-14 18:59:00,27.5,25.0,29.82,SSE,164,0.0,0.0,90,0.00,,,0.06,weatherlink.com 1.10,2014-01-14 23:59:00,
2014-01-14 19:14:00,26.9,25.0,29.82,SSE,164,0.0,0.0,91,0.00,,,0.06,weatherlink.com 1.10,2014-01-15 00:14:00,
2014-01-14 19:29:00,25.9,24.0,29.82,SSE,164,0.0,0.0,91,0.00,,,0.06,weatherlink.com 1.10,2014-01-15 00:29:00,
2014-01-14 19:44:00,25.3,24.0,29.82,SSE,164,0.0,0.0,93,0.00,,,0.06,weatherlink.com 1.10,2014-01-15 00:44:00,
2014-01-14 19:59:00,25.5,24.0,29.83,SSE,164,0.0,0.0,94,0.00,,,0.06,weatherlink.com 1.10,2014-01-15 00:59:00,
2014-01-14 20:14:00,25.8,25.0,29.83,SSE,164,0.0,0.0,95,0.00,,,0.06,weatherlink.com 1.10,2014-01-15 01:14:00,
2014-01-14 20:29:00,26.1,25.0,29.83,SE,138,0.0,1.0,95,0.00,,,0.06,weatherlink.com 1.10,2014-01-15 01:29:00,
2014-01-14 20:44:00,26.2,25.0,29.82,SE,138,0.0,1.0,95,0.00,,,0.06,weatherlink.com 1.10,2014-01-15 01:44:00,
2014-01-14 20:59:00,27.0,26.0,29.82,SE,136,0.0,1.0,94,0.00,,,0.06,weatherlink.com 1.10,2014-01-15 01:59:00,
2014-01-14 21:14:00,26.7,25.0,29.83,SSW,195,0.0,0.0,92,0.00,,,0.06,weatherlink.com 1.10,2014-01-15 02:14:00,
2014-01-14 21:29:00,26.7,25.0,29.82,SSE,161,0.0,2.0,93,0.00,,,0.06,weatherlink.com 1.10,2014-01-15 02:29:00,
2014-01-14 21:44:00,27.2,25.0,29.82,SE,139,0.0,2.0,90,0.00,,,0.06,weatherlink.com 1.10,2014-01-15 02:44:00,
2014-01-14 21:59:00,26.9,24.0,29.82,SE,140,0.0,0.0,90,0.00,,,0.06,weatherlink.com 1.10,2014-01-15 02:59:00,
2014-01-14 22:14:00,27.4,25.0,29.82,ESE,113,1.0,2.0,90,0.00,,,0.06,weatherlink.com 1.10,2014-01-15 03:14:00,
2014-01-14 22:29:00,28.1,25.0,29.81,SE,127,0.0,1.0,89,0.00,,,0.06,weatherlink.com 1.10,2014-01-15 03:29:00,
2014-01-14 22:44:00,28.2,26.0,29.80,ESE,111,0.0,0.0,90,0.00,,,0.06,weatherlink.com 1.10,2014-01-15 03:44:00,
2014-01-14 22:59:00,28.8,26.0,29.80,SE,137,0.0,0.0,89,0.00,,,0.06,weatherlink.com 1.10,2014-01-15 03:59:00,
2014-01-14 23:14:00,29.3,27.0,29.79,ESE,123,1.0,2.0,89,0.00,,,0.06,weatherlink.com 1.10,2014-01-15 04:14:00,
2014-01-14 23:29:00,29.6,27.0,29.78,SE,129,1.0,3.0,88,0.00,,,0.06,weatherlink.com 1.10,2014-01-15 04:29:00,
2014-01-14 23:44:00,29.6,27.0,29.78,ESE,120,0.0,2.0,89,0.00,,,0.06,weatherlink.com 1.10,2014-01-15 04:44:00,
2014-01-14 23:59:00,29.8,27.0,29.78,SE,140,1.0,1.0,89,0.00,,,0.06,weatherlink.com 1.10,2014-01-15 04:59:00,